sensor_id;sensor_type;location;lat;lon;timestamp;P1;durP1;ratioP1;P2;durP2;ratioP2
54416;SDS011;40326;51.220;7.250;2023-03-03T00:01:23;128.15;;;54.63;;
54416;SDS011;40326;51.220;7.250;2023-03-03T00:03:51;125.78;;;50.50;;
54416;SDS011;40326;51.220;7.250;2023-03-03T00:06:16;118.47;;;44.53;;
54416;SDS011;40326;51.220;7.250;2023-03-03T00:08:42;114.88;;;46.15;;
54416;SDS011;40326;51.220;7.250;2023-03-03T00:11:07;118.40;;;48.25;;
54416;SDS011;40326;51.220;7.250;2023-03-03T00:13:42;111.25;;;47.13;;
54416;SDS011;40326;51.220;7.250;2023-03-03T00:16:12;118.45;;;48.53;;
54416;SDS011;40326;51.220;7.250;2023-03-03T00:18:39;113.63;;;45.25;;
54416;SDS011;40326;51.220;7.250;2023-03-03T00:21:10;142.15;;;52.72;;
54416;SDS011;40326;51.220;7.250;2023-03-03T00:23:39;116.28;;;46.67;;
54416;SDS011;40326;51.220;7.250;2023-03-03T00:26:17;131.32;;;48.78;;
54416;SDS011;40326;51.220;7.250;2023-03-03T00:28:46;112.07;;;46.30;;
54416;SDS011;40326;51.220;7.250;2023-03-03T00:31:28;127.28;;;49.95;;
54416;SDS011;40326;51.220;7.250;2023-03-03T00:33:54;105.35;;;43.13;;
54416;SDS011;40326;51.220;7.250;2023-03-03T00:36:22;115.93;;;47.63;;
54416;SDS011;40326;51.220;7.250;2023-03-03T00:38:52;101.82;;;43.58;;
54416;SDS011;40326;51.220;7.250;2023-03-03T00:41:24;127.65;;;49.30;;
54416;SDS011;40326;51.220;7.250;2023-03-03T00:43:50;123.00;;;45.42;;
54416;SDS011;40326;51.220;7.250;2023-03-03T00:46:20;131.85;;;47.33;;
54416;SDS011;40326;51.220;7.250;2023-03-03T00:48:46;111.65;;;43.00;;
54416;SDS011;40326;51.220;7.250;2023-03-03T00:53:43;114.57;;;42.97;;
54416;SDS011;40326;51.220;7.250;2023-03-03T00:56:08;114.13;;;42.35;;
54416;SDS011;40326;51.220;7.250;2023-03-03T00:58:33;106.75;;;43.67;;
54416;SDS011;40326;51.220;7.250;2023-03-03T01:00:59;111.60;;;43.45;;
54416;SDS011;40326;51.220;7.250;2023-03-03T01:03:24;111.75;;;43.13;;
54416;SDS011;40326;51.220;7.250;2023-03-03T01:05:50;97.55;;;41.40;;
54416;SDS011;40326;51.220;7.250;2023-03-03T01:08:15;105.47;;;42.03;;
54416;SDS011;40326;51.220;7.250;2023-03-03T01:10:43;116.20;;;45.70;;
54416;SDS011;40326;51.220;7.250;2023-03-03T01:13:09;104.00;;;40.53;;
54416;SDS011;40326;51.220;7.250;2023-03-03T01:15:35;129.20;;;46.85;;
54416;SDS011;40326;51.220;7.250;2023-03-03T01:18:00;121.85;;;45.83;;
54416;SDS011;40326;51.220;7.250;2023-03-03T01:20:25;117.00;;;45.83;;
54416;SDS011;40326;51.220;7.250;2023-03-03T01:22:51;131.10;;;45.45;;
54416;SDS011;40326;51.220;7.250;2023-03-03T01:25:16;133.43;;;46.88;;
54416;SDS011;40326;51.220;7.250;2023-03-03T01:27:41;128.88;;;48.42;;
54416;SDS011;40326;51.220;7.250;2023-03-03T01:30:06;145.75;;;47.83;;
54416;SDS011;40326;51.220;7.250;2023-03-03T01:32:32;134.23;;;49.15;;
54416;SDS011;40326;51.220;7.250;2023-03-03T01:34:58;119.00;;;44.38;;
54416;SDS011;40326;51.220;7.250;2023-03-03T01:37:23;130.75;;;46.38;;
54416;SDS011;40326;51.220;7.250;2023-03-03T01:39:49;106.78;;;41.70;;
54416;SDS011;40326;51.220;7.250;2023-03-03T01:42:15;111.82;;;41.38;;
54416;SDS011;40326;51.220;7.250;2023-03-03T01:44:40;199.30;;;48.90;;
54416;SDS011;40326;51.220;7.250;2023-03-03T01:47:15;167.27;;;44.65;;
54416;SDS011;40326;51.220;7.250;2023-03-03T01:49:43;247.35;;;50.28;;
54416;SDS011;40326;51.220;7.250;2023-03-03T01:52:18;228.45;;;45.30;;
54416;SDS011;40326;51.220;7.250;2023-03-03T01:54:47;217.50;;;43.60;;
54416;SDS011;40326;51.220;7.250;2023-03-03T01:57:15;232.02;;;44.17;;
54416;SDS011;40326;51.220;7.250;2023-03-03T01:59:44;253.55;;;47.45;;
54416;SDS011;40326;51.220;7.250;2023-03-03T02:02:11;171.50;;;39.80;;
54416;SDS011;40326;51.220;7.250;2023-03-03T02:04:36;192.95;;;39.38;;
54416;SDS011;40326;51.220;7.250;2023-03-03T02:07:04;199.98;;;40.63;;
54416;SDS011;40326;51.220;7.250;2023-03-03T02:12:16;167.98;;;39.28;;
54416;SDS011;40326;51.220;7.250;2023-03-03T02:14:42;157.63;;;39.30;;
54416;SDS011;40326;51.220;7.250;2023-03-03T02:17:07;260.45;;;44.63;;
54416;SDS011;40326;51.220;7.250;2023-03-03T02:22:01;257.55;;;46.03;;
54416;SDS011;40326;51.220;7.250;2023-03-03T02:24:27;209.23;;;41.17;;
54416;SDS011;40326;51.220;7.250;2023-03-03T02:26:55;228.55;;;45.08;;
54416;SDS011;40326;51.220;7.250;2023-03-03T02:29:21;197.15;;;42.88;;
54416;SDS011;40326;51.220;7.250;2023-03-03T02:31:46;133.15;;;39.63;;
54416;SDS011;40326;51.220;7.250;2023-03-03T02:34:11;204.35;;;44.65;;
54416;SDS011;40326;51.220;7.250;2023-03-03T02:36:37;237.85;;;49.67;;
54416;SDS011;40326;51.220;7.250;2023-03-03T02:41:38;231.52;;;46.10;;
54416;SDS011;40326;51.220;7.250;2023-03-03T02:44:05;318.40;;;51.08;;
54416;SDS011;40326;51.220;7.250;2023-03-03T02:46:35;289.02;;;45.05;;
54416;SDS011;40326;51.220;7.250;2023-03-03T02:49:01;271.60;;;46.05;;
54416;SDS011;40326;51.220;7.250;2023-03-03T02:51:26;291.80;;;48.63;;
54416;SDS011;40326;51.220;7.250;2023-03-03T02:53:51;284.58;;;50.05;;
54416;SDS011;40326;51.220;7.250;2023-03-03T02:56:16;299.15;;;50.75;;
54416;SDS011;40326;51.220;7.250;2023-03-03T02:58:41;373.58;;;58.50;;
54416;SDS011;40326;51.220;7.250;2023-03-03T03:01:07;146.68;;;39.80;;
54416;SDS011;40326;51.220;7.250;2023-03-03T03:03:32;134.15;;;38.25;;
54416;SDS011;40326;51.220;7.250;2023-03-03T03:05:57;133.93;;;35.25;;
54416;SDS011;40326;51.220;7.250;2023-03-03T03:08:22;101.10;;;34.10;;
54416;SDS011;40326;51.220;7.250;2023-03-03T03:10:48;189.95;;;41.67;;
54416;SDS011;40326;51.220;7.250;2023-03-03T03:13:13;95.75;;;32.38;;
54416;SDS011;40326;51.220;7.250;2023-03-03T03:15:38;157.65;;;44.50;;
54416;SDS011;40326;51.220;7.250;2023-03-03T03:18:03;99.60;;;36.20;;
54416;SDS011;40326;51.220;7.250;2023-03-03T03:20:29;167.35;;;44.05;;
54416;SDS011;40326;51.220;7.250;2023-03-03T03:22:54;109.90;;;35.95;;
54416;SDS011;40326;51.220;7.250;2023-03-03T03:25:19;172.63;;;37.00;;
54416;SDS011;40326;51.220;7.250;2023-03-03T03:27:44;156.27;;;38.25;;
54416;SDS011;40326;51.220;7.250;2023-03-03T03:30:10;142.60;;;35.88;;
54416;SDS011;40326;51.220;7.250;2023-03-03T03:32:35;156.70;;;35.17;;
54416;SDS011;40326;51.220;7.250;2023-03-03T03:35:00;133.70;;;36.38;;
54416;SDS011;40326;51.220;7.250;2023-03-03T03:37:25;95.60;;;31.95;;
54416;SDS011;40326;51.220;7.250;2023-03-03T03:39:51;170.57;;;41.08;;
54416;SDS011;40326;51.220;7.250;2023-03-03T03:42:16;135.05;;;36.28;;
54416;SDS011;40326;51.220;7.250;2023-03-03T03:44:41;296.67;;;48.33;;
54416;SDS011;40326;51.220;7.250;2023-03-03T03:47:06;241.90;;;40.70;;
54416;SDS011;40326;51.220;7.250;2023-03-03T03:49:31;167.10;;;33.03;;
54416;SDS011;40326;51.220;7.250;2023-03-03T03:51:57;288.08;;;47.72;;
54416;SDS011;40326;51.220;7.250;2023-03-03T03:54:22;233.55;;;37.60;;
54416;SDS011;40326;51.220;7.250;2023-03-03T03:56:47;179.98;;;35.33;;
54416;SDS011;40326;51.220;7.250;2023-03-03T03:59:12;249.20;;;46.47;;
54416;SDS011;40326;51.220;7.250;2023-03-03T04:01:38;279.65;;;46.10;;
54416;SDS011;40326;51.220;7.250;2023-03-03T04:04:03;209.82;;;39.65;;
54416;SDS011;40326;51.220;7.250;2023-03-03T04:06:28;241.70;;;42.30;;
54416;SDS011;40326;51.220;7.250;2023-03-03T04:08:54;167.77;;;36.35;;
54416;SDS011;40326;51.220;7.250;2023-03-03T04:11:19;193.48;;;39.15;;
54416;SDS011;40326;51.220;7.250;2023-03-03T04:13:44;231.30;;;43.05;;
54416;SDS011;40326;51.220;7.250;2023-03-03T04:16:09;215.55;;;42.80;;
54416;SDS011;40326;51.220;7.250;2023-03-03T04:18:35;154.15;;;32.28;;
54416;SDS011;40326;51.220;7.250;2023-03-03T04:21:00;157.55;;;34.78;;
54416;SDS011;40326;51.220;7.250;2023-03-03T04:23:25;228.02;;;41.05;;
54416;SDS011;40326;51.220;7.250;2023-03-03T04:25:50;222.82;;;36.58;;
54416;SDS011;40326;51.220;7.250;2023-03-03T04:28:16;301.10;;;46.55;;
54416;SDS011;40326;51.220;7.250;2023-03-03T04:30:41;282.13;;;46.40;;
54416;SDS011;40326;51.220;7.250;2023-03-03T04:33:07;279.13;;;44.95;;
54416;SDS011;40326;51.220;7.250;2023-03-03T04:35:33;331.13;;;48.92;;
54416;SDS011;40326;51.220;7.250;2023-03-03T04:37:58;206.70;;;38.47;;
54416;SDS011;40326;51.220;7.250;2023-03-03T04:40:23;282.20;;;51.22;;
54416;SDS011;40326;51.220;7.250;2023-03-03T04:42:48;289.33;;;44.78;;
54416;SDS011;40326;51.220;7.250;2023-03-03T04:45:14;450.25;;;58.30;;
54416;SDS011;40326;51.220;7.250;2023-03-03T04:47:39;398.00;;;51.72;;
54416;SDS011;40326;51.220;7.250;2023-03-03T04:50:04;211.52;;;39.28;;
54416;SDS011;40326;51.220;7.250;2023-03-03T04:52:30;338.45;;;47.85;;
54416;SDS011;40326;51.220;7.250;2023-03-03T04:54:55;427.73;;;54.42;;
54416;SDS011;40326;51.220;7.250;2023-03-03T04:57:20;366.23;;;50.42;;
54416;SDS011;40326;51.220;7.250;2023-03-03T04:59:45;365.05;;;49.85;;
54416;SDS011;40326;51.220;7.250;2023-03-03T05:02:10;301.45;;;44.55;;
54416;SDS011;40326;51.220;7.250;2023-03-03T05:04:37;378.50;;;55.33;;
54416;SDS011;40326;51.220;7.250;2023-03-03T05:07:02;269.10;;;43.13;;
54416;SDS011;40326;51.220;7.250;2023-03-03T05:09:28;189.50;;;39.17;;
54416;SDS011;40326;51.220;7.250;2023-03-03T05:11:53;242.93;;;39.55;;
54416;SDS011;40326;51.220;7.250;2023-03-03T05:14:18;278.27;;;43.25;;
54416;SDS011;40326;51.220;7.250;2023-03-03T05:16:43;240.65;;;39.92;;
54416;SDS011;40326;51.220;7.250;2023-03-03T05:19:08;278.73;;;49.90;;
54416;SDS011;40326;51.220;7.250;2023-03-03T05:21:33;311.48;;;47.38;;
54416;SDS011;40326;51.220;7.250;2023-03-03T05:23:59;361.85;;;48.83;;
54416;SDS011;40326;51.220;7.250;2023-03-03T05:26:24;203.85;;;41.28;;
54416;SDS011;40326;51.220;7.250;2023-03-03T05:28:49;242.70;;;35.85;;
54416;SDS011;40326;51.220;7.250;2023-03-03T05:31:15;404.70;;;47.17;;
54416;SDS011;40326;51.220;7.250;2023-03-03T05:33:40;284.08;;;40.70;;
54416;SDS011;40326;51.220;7.250;2023-03-03T05:36:05;305.60;;;41.03;;
54416;SDS011;40326;51.220;7.250;2023-03-03T05:38:30;245.85;;;38.72;;
54416;SDS011;40326;51.220;7.250;2023-03-03T05:40:56;201.27;;;34.78;;
54416;SDS011;40326;51.220;7.250;2023-03-03T05:43:21;342.05;;;46.65;;
54416;SDS011;40326;51.220;7.250;2023-03-03T05:45:46;198.38;;;37.08;;
54416;SDS011;40326;51.220;7.250;2023-03-03T05:48:11;88.68;;;31.27;;
54416;SDS011;40326;51.220;7.250;2023-03-03T05:50:37;106.90;;;31.38;;
54416;SDS011;40326;51.220;7.250;2023-03-03T05:53:02;108.00;;;30.85;;
54416;SDS011;40326;51.220;7.250;2023-03-03T05:55:28;94.63;;;30.92;;
54416;SDS011;40326;51.220;7.250;2023-03-03T05:57:53;109.22;;;30.40;;
54416;SDS011;40326;51.220;7.250;2023-03-03T06:00:20;79.38;;;25.45;;
54416;SDS011;40326;51.220;7.250;2023-03-03T06:02:45;124.57;;;27.98;;
54416;SDS011;40326;51.220;7.250;2023-03-03T06:05:10;107.65;;;29.52;;
54416;SDS011;40326;51.220;7.250;2023-03-03T06:07:36;88.45;;;26.88;;
54416;SDS011;40326;51.220;7.250;2023-03-03T06:10:01;98.30;;;25.83;;
54416;SDS011;40326;51.220;7.250;2023-03-03T06:12:26;93.70;;;27.70;;
54416;SDS011;40326;51.220;7.250;2023-03-03T06:14:52;98.57;;;25.70;;
54416;SDS011;40326;51.220;7.250;2023-03-03T06:17:17;84.70;;;22.50;;
54416;SDS011;40326;51.220;7.250;2023-03-03T06:19:42;101.25;;;27.05;;
54416;SDS011;40326;51.220;7.250;2023-03-03T06:22:07;109.55;;;26.42;;
54416;SDS011;40326;51.220;7.250;2023-03-03T06:24:33;81.20;;;24.38;;
54416;SDS011;40326;51.220;7.250;2023-03-03T06:26:58;105.30;;;27.08;;
54416;SDS011;40326;51.220;7.250;2023-03-03T06:29:24;102.97;;;27.92;;
54416;SDS011;40326;51.220;7.250;2023-03-03T06:31:49;97.25;;;27.30;;
54416;SDS011;40326;51.220;7.250;2023-03-03T06:34:14;126.13;;;28.20;;
54416;SDS011;40326;51.220;7.250;2023-03-03T06:36:39;125.07;;;27.77;;
54416;SDS011;40326;51.220;7.250;2023-03-03T06:39:04;129.40;;;29.27;;
54416;SDS011;40326;51.220;7.250;2023-03-03T06:41:30;160.77;;;32.00;;
54416;SDS011;40326;51.220;7.250;2023-03-03T06:43:55;149.32;;;30.50;;
54416;SDS011;40326;51.220;7.250;2023-03-03T06:46:20;103.93;;;28.17;;
54416;SDS011;40326;51.220;7.250;2023-03-03T06:48:45;107.63;;;28.63;;
54416;SDS011;40326;51.220;7.250;2023-03-03T06:51:32;83.22;;;26.05;;
54416;SDS011;40326;51.220;7.250;2023-03-03T06:53:57;123.13;;;29.52;;
54416;SDS011;40326;51.220;7.250;2023-03-03T06:56:24;104.63;;;26.85;;
54416;SDS011;40326;51.220;7.250;2023-03-03T06:58:51;76.47;;;25.98;;
54416;SDS011;40326;51.220;7.250;2023-03-03T07:01:17;79.72;;;25.83;;
54416;SDS011;40326;51.220;7.250;2023-03-03T07:03:42;63.25;;;24.50;;
54416;SDS011;40326;51.220;7.250;2023-03-03T07:06:41;67.68;;;24.98;;
54416;SDS011;40326;51.220;7.250;2023-03-03T07:08:59;59.33;;;23.00;;
54416;SDS011;40326;51.220;7.250;2023-03-03T07:11:24;68.70;;;25.02;;
54416;SDS011;40326;51.220;7.250;2023-03-03T07:13:50;63.17;;;23.98;;
54416;SDS011;40326;51.220;7.250;2023-03-03T07:16:16;63.25;;;24.13;;
54416;SDS011;40326;51.220;7.250;2023-03-03T07:18:46;54.15;;;21.23;;
54416;SDS011;40326;51.220;7.250;2023-03-03T07:21:31;68.63;;;22.87;;
54416;SDS011;40326;51.220;7.250;2023-03-03T07:23:57;54.10;;;21.20;;
54416;SDS011;40326;51.220;7.250;2023-03-03T07:26:29;65.95;;;24.33;;
54416;SDS011;40326;51.220;7.250;2023-03-03T07:28:57;54.13;;;21.98;;
54416;SDS011;40326;51.220;7.250;2023-03-03T07:31:28;49.05;;;19.60;;
54416;SDS011;40326;51.220;7.250;2023-03-03T07:33:54;55.38;;;21.38;;
54416;SDS011;40326;51.220;7.250;2023-03-03T07:36:23;47.42;;;19.77;;
54416;SDS011;40326;51.220;7.250;2023-03-03T07:38:54;50.15;;;20.70;;
54416;SDS011;40326;51.220;7.250;2023-03-03T07:41:19;48.22;;;20.48;;
54416;SDS011;40326;51.220;7.250;2023-03-03T07:43:48;55.45;;;21.85;;
54416;SDS011;40326;51.220;7.250;2023-03-03T07:48:51;44.47;;;18.20;;
54416;SDS011;40326;51.220;7.250;2023-03-03T07:51:22;44.75;;;19.30;;
54416;SDS011;40326;51.220;7.250;2023-03-03T07:53:53;46.33;;;19.83;;
54416;SDS011;40326;51.220;7.250;2023-03-03T07:58:49;49.53;;;20.35;;
54416;SDS011;40326;51.220;7.250;2023-03-03T08:01:22;44.05;;;18.90;;
54416;SDS011;40326;51.220;7.250;2023-03-03T08:03:51;43.15;;;19.55;;
54416;SDS011;40326;51.220;7.250;2023-03-03T08:08:47;39.50;;;18.55;;
54416;SDS011;40326;51.220;7.250;2023-03-03T08:11:13;43.80;;;20.27;;
54416;SDS011;40326;51.220;7.250;2023-03-03T08:13:39;36.47;;;17.35;;
54416;SDS011;40326;51.220;7.250;2023-03-03T08:21:00;41.90;;;18.98;;
54416;SDS011;40326;51.220;7.250;2023-03-03T08:23:26;39.42;;;18.58;;
54416;SDS011;40326;51.220;7.250;2023-03-03T08:25:51;42.28;;;18.08;;
54416;SDS011;40326;51.220;7.250;2023-03-03T08:28:17;40.63;;;19.58;;
54416;SDS011;40326;51.220;7.250;2023-03-03T08:30:42;40.95;;;19.05;;
54416;SDS011;40326;51.220;7.250;2023-03-03T08:33:08;40.92;;;20.50;;
54416;SDS011;40326;51.220;7.250;2023-03-03T08:35:33;44.03;;;19.52;;
54416;SDS011;40326;51.220;7.250;2023-03-03T08:37:58;46.63;;;21.40;;
54416;SDS011;40326;51.220;7.250;2023-03-03T08:40:24;44.45;;;21.13;;
54416;SDS011;40326;51.220;7.250;2023-03-03T08:42:49;42.78;;;19.17;;
54416;SDS011;40326;51.220;7.250;2023-03-03T08:45:14;49.78;;;21.77;;
54416;SDS011;40326;51.220;7.250;2023-03-03T08:47:39;42.65;;;20.48;;
54416;SDS011;40326;51.220;7.250;2023-03-03T08:50:07;44.00;;;21.27;;
54416;SDS011;40326;51.220;7.250;2023-03-03T08:52:32;44.15;;;21.02;;
54416;SDS011;40326;51.220;7.250;2023-03-03T08:54:58;47.60;;;21.90;;
54416;SDS011;40326;51.220;7.250;2023-03-03T08:57:23;47.85;;;21.58;;
54416;SDS011;40326;51.220;7.250;2023-03-03T08:59:48;40.83;;;20.85;;
54416;SDS011;40326;51.220;7.250;2023-03-03T09:02:13;37.00;;;19.05;;
54416;SDS011;40326;51.220;7.250;2023-03-03T09:04:39;41.90;;;20.05;;
54416;SDS011;40326;51.220;7.250;2023-03-03T09:07:04;39.70;;;20.67;;
54416;SDS011;40326;51.220;7.250;2023-03-03T09:09:29;42.50;;;20.70;;
54416;SDS011;40326;51.220;7.250;2023-03-03T09:11:58;37.35;;;18.98;;
54416;SDS011;40326;51.220;7.250;2023-03-03T09:14:26;44.38;;;19.70;;
54416;SDS011;40326;51.220;7.250;2023-03-03T09:16:52;41.20;;;19.08;;
54416;SDS011;40326;51.220;7.250;2023-03-03T09:21:50;46.92;;;21.30;;
54416;SDS011;40326;51.220;7.250;2023-03-03T09:24:23;40.80;;;19.98;;
54416;SDS011;40326;51.220;7.250;2023-03-03T09:26:49;39.55;;;19.08;;
54416;SDS011;40326;51.220;7.250;2023-03-03T09:29:27;40.42;;;20.45;;
54416;SDS011;40326;51.220;7.250;2023-03-03T09:31:57;39.67;;;20.92;;
54416;SDS011;40326;51.220;7.250;2023-03-03T09:37:01;37.75;;;18.95;;
54416;SDS011;40326;51.220;7.250;2023-03-03T09:39:27;41.38;;;19.48;;
54416;SDS011;40326;51.220;7.250;2023-03-03T10:02:54;39.40;;;18.08;;
54416;SDS011;40326;51.220;7.250;2023-03-03T10:05:29;38.72;;;19.30;;
54416;SDS011;40326;51.220;7.250;2023-03-03T10:10:35;37.65;;;18.55;;
54416;SDS011;40326;51.220;7.250;2023-03-03T10:13:25;38.10;;;18.35;;
54416;SDS011;40326;51.220;7.250;2023-03-03T10:16:05;36.90;;;18.25;;
54416;SDS011;40326;51.220;7.250;2023-03-03T10:21:09;35.38;;;19.08;;
54416;SDS011;40326;51.220;7.250;2023-03-03T10:23:51;41.20;;;19.13;;
54416;SDS011;40326;51.220;7.250;2023-03-03T10:33:52;34.30;;;17.77;;
54416;SDS011;40326;51.220;7.250;2023-03-03T10:39:33;37.03;;;18.95;;
54416;SDS011;40326;51.220;7.250;2023-03-03T10:54:46;34.58;;;19.02;;
54416;SDS011;40326;51.220;7.250;2023-03-03T11:02:07;32.88;;;16.08;;
54416;SDS011;40326;51.220;7.250;2023-03-03T11:04:44;33.55;;;18.13;;
54416;SDS011;40326;51.220;7.250;2023-03-03T11:12:33;29.58;;;16.70;;
54416;SDS011;40326;51.220;7.250;2023-03-03T11:17:52;28.17;;;15.32;;
54416;SDS011;40326;51.220;7.250;2023-03-03T11:23:06;28.05;;;16.05;;
54416;SDS011;40326;51.220;7.250;2023-03-03T11:25:45;31.77;;;17.30;;
54416;SDS011;40326;51.220;7.250;2023-03-03T11:33:36;32.25;;;17.70;;
54416;SDS011;40326;51.220;7.250;2023-03-03T11:38:52;34.22;;;18.27;;
54416;SDS011;40326;51.220;7.250;2023-03-03T11:41:35;31.65;;;16.50;;
54416;SDS011;40326;51.220;7.250;2023-03-03T11:44:08;28.60;;;16.02;;
54416;SDS011;40326;51.220;7.250;2023-03-03T11:46:37;29.85;;;15.75;;
54416;SDS011;40326;51.220;7.250;2023-03-03T11:49:04;33.55;;;19.52;;
54416;SDS011;40326;51.220;7.250;2023-03-03T11:54:08;30.97;;;17.97;;
54416;SDS011;40326;51.220;7.250;2023-03-03T11:56:41;33.78;;;17.95;;
54416;SDS011;40326;51.220;7.250;2023-03-03T12:01:41;31.63;;;17.60;;
54416;SDS011;40326;51.220;7.250;2023-03-03T12:04:11;30.83;;;17.65;;
54416;SDS011;40326;51.220;7.250;2023-03-03T12:06:39;30.02;;;16.15;;
54416;SDS011;40326;51.220;7.250;2023-03-03T12:09:20;34.85;;;18.63;;
54416;SDS011;40326;51.220;7.250;2023-03-03T12:16:43;31.35;;;16.45;;
54416;SDS011;40326;51.220;7.250;2023-03-03T12:19:30;30.48;;;16.33;;
54416;SDS011;40326;51.220;7.250;2023-03-03T12:22:07;29.92;;;16.33;;
54416;SDS011;40326;51.220;7.250;2023-03-03T12:35:14;28.55;;;16.23;;
54416;SDS011;40326;51.220;7.250;2023-03-03T12:45:55;27.25;;;16.15;;
54416;SDS011;40326;51.220;7.250;2023-03-03T12:48:30;24.85;;;14.15;;
54416;SDS011;40326;51.220;7.250;2023-03-03T12:51:00;27.13;;;16.00;;
54416;SDS011;40326;51.220;7.250;2023-03-03T13:01:13;26.17;;;15.30;;
54416;SDS011;40326;51.220;7.250;2023-03-03T13:03:44;28.67;;;16.02;;
54416;SDS011;40326;51.220;7.250;2023-03-03T13:06:22;27.08;;;15.38;;
54416;SDS011;40326;51.220;7.250;2023-03-03T13:11:25;29.15;;;15.68;;
54416;SDS011;40326;51.220;7.250;2023-03-03T13:14:10;26.60;;;14.40;;
54416;SDS011;40326;51.220;7.250;2023-03-03T13:16:39;23.92;;;14.05;;
54416;SDS011;40326;51.220;7.250;2023-03-03T13:19:09;28.23;;;16.10;;
54416;SDS011;40326;51.220;7.250;2023-03-03T13:21:38;28.85;;;15.45;;
54416;SDS011;40326;51.220;7.250;2023-03-03T13:26:51;27.17;;;14.75;;
54416;SDS011;40326;51.220;7.250;2023-03-03T13:29:28;25.58;;;15.43;;
54416;SDS011;40326;51.220;7.250;2023-03-03T13:31:55;25.90;;;15.70;;
54416;SDS011;40326;51.220;7.250;2023-03-03T13:36:53;28.97;;;14.13;;
54416;SDS011;40326;51.220;7.250;2023-03-03T13:39:42;26.52;;;14.00;;
54416;SDS011;40326;51.220;7.250;2023-03-03T13:42:23;28.95;;;14.60;;
54416;SDS011;40326;51.220;7.250;2023-03-03T13:44:50;30.65;;;15.75;;
54416;SDS011;40326;51.220;7.250;2023-03-03T13:47:19;27.10;;;15.50;;
54416;SDS011;40326;51.220;7.250;2023-03-03T13:49:59;26.20;;;14.25;;
54416;SDS011;40326;51.220;7.250;2023-03-03T13:52:28;24.13;;;14.27;;
54416;SDS011;40326;51.220;7.250;2023-03-03T13:55:00;25.75;;;13.57;;
54416;SDS011;40326;51.220;7.250;2023-03-03T14:05:21;24.65;;;14.05;;
54416;SDS011;40326;51.220;7.250;2023-03-03T14:08:08;30.65;;;15.10;;
54416;SDS011;40326;51.220;7.250;2023-03-03T14:10:56;30.40;;;15.30;;
54416;SDS011;40326;51.220;7.250;2023-03-03T14:13:25;29.33;;;15.98;;
54416;SDS011;40326;51.220;7.250;2023-03-03T14:15:57;28.67;;;14.90;;
54416;SDS011;40326;51.220;7.250;2023-03-03T14:20:54;26.95;;;15.20;;
54416;SDS011;40326;51.220;7.250;2023-03-03T14:25:58;30.10;;;16.02;;
54416;SDS011;40326;51.220;7.250;2023-03-03T14:28:25;29.70;;;14.68;;
54416;SDS011;40326;51.220;7.250;2023-03-03T14:30:52;30.73;;;15.95;;
54416;SDS011;40326;51.220;7.250;2023-03-03T14:33:19;29.52;;;14.25;;
54416;SDS011;40326;51.220;7.250;2023-03-03T14:38:23;32.53;;;15.43;;
54416;SDS011;40326;51.220;7.250;2023-03-03T14:41:02;30.58;;;16.88;;
54416;SDS011;40326;51.220;7.250;2023-03-03T14:43:35;31.00;;;15.30;;
54416;SDS011;40326;51.220;7.250;2023-03-03T14:48:54;32.38;;;15.20;;
54416;SDS011;40326;51.220;7.250;2023-03-03T14:51:37;31.67;;;14.30;;
54416;SDS011;40326;51.220;7.250;2023-03-03T14:54:05;30.08;;;14.63;;
54416;SDS011;40326;51.220;7.250;2023-03-03T14:56:32;30.45;;;14.75;;
54416;SDS011;40326;51.220;7.250;2023-03-03T15:01:38;33.90;;;15.10;;
54416;SDS011;40326;51.220;7.250;2023-03-03T15:04:06;30.33;;;15.38;;
54416;SDS011;40326;51.220;7.250;2023-03-03T15:06:53;31.42;;;14.35;;
54416;SDS011;40326;51.220;7.250;2023-03-03T15:09:20;32.97;;;14.88;;
54416;SDS011;40326;51.220;7.250;2023-03-03T15:11:45;29.33;;;14.55;;
54416;SDS011;40326;51.220;7.250;2023-03-03T15:14:11;30.92;;;14.63;;
54416;SDS011;40326;51.220;7.250;2023-03-03T15:16:38;31.45;;;14.52;;
54416;SDS011;40326;51.220;7.250;2023-03-03T15:26:56;27.65;;;12.93;;
54416;SDS011;40326;51.220;7.250;2023-03-03T15:38:02;34.85;;;14.13;;
54416;SDS011;40326;51.220;7.250;2023-03-03T15:40:43;28.10;;;13.80;;
54416;SDS011;40326;51.220;7.250;2023-03-03T15:45:46;28.40;;;13.35;;
54416;SDS011;40326;51.220;7.250;2023-03-03T16:04:25;27.65;;;12.75;;
54416;SDS011;40326;51.220;7.250;2023-03-03T16:06:55;30.38;;;13.02;;
54416;SDS011;40326;51.220;7.250;2023-03-03T16:09:46;28.83;;;13.90;;
54416;SDS011;40326;51.220;7.250;2023-03-03T16:17:52;28.02;;;13.20;;
54416;SDS011;40326;51.220;7.250;2023-03-03T16:28:18;30.85;;;14.88;;
54416;SDS011;40326;51.220;7.250;2023-03-03T16:33:55;29.00;;;13.97;;
54416;SDS011;40326;51.220;7.250;2023-03-03T16:36:25;31.67;;;15.13;;
54416;SDS011;40326;51.220;7.250;2023-03-03T16:44:00;33.88;;;15.70;;
54416;SDS011;40326;51.220;7.250;2023-03-03T16:46:36;34.13;;;17.23;;
54416;SDS011;40326;51.220;7.250;2023-03-03T16:49:07;38.05;;;17.38;;
54416;SDS011;40326;51.220;7.250;2023-03-03T16:51:48;37.70;;;19.20;;
54416;SDS011;40326;51.220;7.250;2023-03-03T16:54:23;38.58;;;19.58;;
54416;SDS011;40326;51.220;7.250;2023-03-03T16:57:10;42.60;;;21.85;;
54416;SDS011;40326;51.220;7.250;2023-03-03T17:02:39;41.08;;;20.25;;
54416;SDS011;40326;51.220;7.250;2023-03-03T17:07:53;43.33;;;23.08;;
54416;SDS011;40326;51.220;7.250;2023-03-03T17:10:29;44.78;;;23.30;;
54416;SDS011;40326;51.220;7.250;2023-03-03T17:23:12;49.65;;;24.15;;
54416;SDS011;40326;51.220;7.250;2023-03-03T17:25:42;50.20;;;24.90;;
54416;SDS011;40326;51.220;7.250;2023-03-03T17:30:59;44.85;;;23.17;;
54416;SDS011;40326;51.220;7.250;2023-03-03T17:46:17;50.53;;;22.58;;
54416;SDS011;40326;51.220;7.250;2023-03-03T17:48:57;49.88;;;22.42;;
54416;SDS011;40326;51.220;7.250;2023-03-03T17:51:40;47.00;;;22.17;;
54416;SDS011;40326;51.220;7.250;2023-03-03T17:54:16;47.13;;;22.40;;
54416;SDS011;40326;51.220;7.250;2023-03-03T17:56:48;53.17;;;22.30;;
54416;SDS011;40326;51.220;7.250;2023-03-03T18:04:49;52.90;;;24.10;;
54416;SDS011;40326;51.220;7.250;2023-03-03T18:07:32;51.38;;;21.83;;
54416;SDS011;40326;51.220;7.250;2023-03-03T18:15:27;54.90;;;24.63;;
54416;SDS011;40326;51.220;7.250;2023-03-03T18:23:34;50.08;;;21.77;;
54416;SDS011;40326;51.220;7.250;2023-03-03T18:26:02;53.78;;;26.23;;
54416;SDS011;40326;51.220;7.250;2023-03-03T18:28:44;64.60;;;24.50;;
54416;SDS011;40326;51.220;7.250;2023-03-03T18:31:26;52.22;;;23.67;;
54416;SDS011;40326;51.220;7.250;2023-03-03T18:36:39;55.65;;;24.67;;
54416;SDS011;40326;51.220;7.250;2023-03-03T18:39:03;61.20;;;25.42;;
54416;SDS011;40326;51.220;7.250;2023-03-03T18:41:29;60.47;;;28.58;;
54416;SDS011;40326;51.220;7.250;2023-03-03T18:52:12;56.22;;;24.38;;
54416;SDS011;40326;51.220;7.250;2023-03-03T18:54:04;61.55;;;24.85;;
54416;SDS011;40326;51.220;7.250;2023-03-03T19:02:06;61.95;;;27.27;;
54416;SDS011;40326;51.220;7.250;2023-03-03T19:04:35;63.22;;;26.80;;
54416;SDS011;40326;51.220;7.250;2023-03-03T19:07:12;64.72;;;26.85;;
54416;SDS011;40326;51.220;7.250;2023-03-03T19:12:16;66.43;;;26.80;;
54416;SDS011;40326;51.220;7.250;2023-03-03T19:14:44;64.65;;;27.52;;